sensor_id;sensor_type;location;lat;lon;timestamp;pressure;altitude;pressure_sealevel;temperature;humidity
26657;BME280;14279;50.010;8.260;2023-03-14T00:01:16;98535.00;;;12.11;76.00
26657;BME280;14279;50.010;8.260;2023-03-14T00:03:52;98550.06;;;12.07;76.37
26657;BME280;14279;50.010;8.260;2023-03-14T00:06:31;98554.91;;;12.12;76.43
26657;BME280;14279;50.010;8.260;2023-03-14T00:08:57;98550.28;;;12.15;76.02
26657;BME280;14279;50.010;8.260;2023-03-14T00:11:42;98558.72;;;12.08;75.85
26657;BME280;14279;50.010;8.260;2023-03-14T00:14:16;98553.63;;;12.06;76.29
26657;BME280;14279;50.010;8.260;2023-03-14T00:16:48;98548.88;;;12.11;75.89
26657;BME280;14279;50.010;8.260;2023-03-14T00:19:22;98544.50;;;12.12;75.70
26657;BME280;14279;50.010;8.260;2023-03-14T00:21:56;98553.50;;;12.08;75.60
26657;BME280;14279;50.010;8.260;2023-03-14T00:24:32;98547.03;;;12.23;74.67
26657;BME280;14279;50.010;8.260;2023-03-14T00:27:04;98535.06;;;12.42;74.10
26657;BME280;14279;50.010;8.260;2023-03-14T00:29:44;98528.06;;;12.42;74.42
26657;BME280;14279;50.010;8.260;2023-03-14T00:32:22;98529.34;;;12.48;73.97
26657;BME280;14279;50.010;8.260;2023-03-14T00:34:51;98527.53;;;12.39;74.47
26657;BME280;14279;50.010;8.260;2023-03-14T00:37:19;98516.88;;;12.52;73.66
26657;BME280;14279;50.010;8.260;2023-03-14T00:39:59;98513.97;;;12.24;74.41
26657;BME280;14279;50.010;8.260;2023-03-14T00:42:25;98507.03;;;12.13;74.47
26657;BME280;14279;50.010;8.260;2023-03-14T00:44:58;98493.13;;;12.12;75.01
26657;BME280;14279;50.010;8.260;2023-03-14T00:47:25;98487.94;;;12.33;74.12
26657;BME280;14279;50.010;8.260;2023-03-14T00:49:53;98480.16;;;12.22;74.36
26657;BME280;14279;50.010;8.260;2023-03-14T00:52:27;98483.28;;;12.16;74.34
26657;BME280;14279;50.010;8.260;2023-03-14T00:55:01;98478.94;;;12.26;74.11
26657;BME280;14279;50.010;8.260;2023-03-14T00:57:35;98492.88;;;12.15;74.16
26657;BME280;14279;50.010;8.260;2023-03-14T01:00:03;98486.19;;;12.01;74.76
26657;BME280;14279;50.010;8.260;2023-03-14T01:02:36;98493.38;;;12.09;74.80
26657;BME280;14279;50.010;8.260;2023-03-14T01:05:02;98503.31;;;12.15;74.09
26657;BME280;14279;50.010;8.260;2023-03-14T01:07:33;98503.88;;;12.19;74.18
26657;BME280;14279;50.010;8.260;2023-03-14T01:10:09;98509.19;;;12.08;74.44
26657;BME280;14279;50.010;8.260;2023-03-14T01:12:38;98502.50;;;12.15;74.22
26657;BME280;14279;50.010;8.260;2023-03-14T01:15:03;98504.06;;;12.06;74.25
26657;BME280;14279;50.010;8.260;2023-03-14T01:17:32;98501.09;;;12.11;73.84
26657;BME280;14279;50.010;8.260;2023-03-14T01:20:03;98492.31;;;12.12;73.91
26657;BME280;14279;50.010;8.260;2023-03-14T01:22:29;98501.47;;;12.06;73.83
26657;BME280;14279;50.010;8.260;2023-03-14T01:24:58;98488.44;;;12.27;73.25
26657;BME280;14279;50.010;8.260;2023-03-14T01:27:27;98503.31;;;12.15;73.25
26657;BME280;14279;50.010;8.260;2023-03-14T01:30:01;98496.69;;;12.11;73.42
26657;BME280;14279;50.010;8.260;2023-03-14T01:32:39;98499.00;;;12.05;74.02
26657;BME280;14279;50.010;8.260;2023-03-14T01:35:23;98494.63;;;11.94;74.39
26657;BME280;14279;50.010;8.260;2023-03-14T01:37:54;98486.50;;;12.08;73.93
26657;BME280;14279;50.010;8.260;2023-03-14T01:40:20;98480.28;;;11.99;74.42
26657;BME280;14279;50.010;8.260;2023-03-14T01:43:04;98466.94;;;12.14;74.00
26657;BME280;14279;50.010;8.260;2023-03-14T01:48:44;98467.00;;;12.02;74.82
26657;BME280;14279;50.010;8.260;2023-03-14T01:57:01;98450.47;;;11.81;75.90
26657;BME280;14279;50.010;8.260;2023-03-14T01:59:30;98437.13;;;11.95;75.16
26657;BME280;14279;50.010;8.260;2023-03-14T02:02:06;98434.03;;;12.01;75.32
26657;BME280;14279;50.010;8.260;2023-03-14T02:04:34;98429.06;;;11.98;75.09
26657;BME280;14279;50.010;8.260;2023-03-14T02:07:23;98432.31;;;11.91;75.81
26657;BME280;14279;50.010;8.260;2023-03-14T02:09:50;98419.19;;;11.81;75.01
26657;BME280;14279;50.010;8.260;2023-03-14T02:12:20;98414.75;;;11.93;74.74
26657;BME280;14279;50.010;8.260;2023-03-14T02:14:50;98420.91;;;12.03;74.42
26657;BME280;14279;50.010;8.260;2023-03-14T02:17:19;98419.13;;;11.92;74.61
26657;BME280;14279;50.010;8.260;2023-03-14T02:22:30;98412.97;;;11.93;74.71
26657;BME280;14279;50.010;8.260;2023-03-14T02:25:13;98402.53;;;11.93;74.27
26657;BME280;14279;50.010;8.260;2023-03-14T02:27:53;98392.09;;;11.93;74.41
26657;BME280;14279;50.010;8.260;2023-03-14T02:30:21;98383.84;;;11.88;74.77
26657;BME280;14279;50.010;8.260;2023-03-14T02:33:06;98384.34;;;11.82;74.97
26657;BME280;14279;50.010;8.260;2023-03-14T02:38:51;98358.91;;;11.95;74.78
26657;BME280;14279;50.010;8.260;2023-03-14T02:41:18;98370.88;;;11.77;75.23
26657;BME280;14279;50.010;8.260;2023-03-14T02:43:44;98370.88;;;11.77;75.67
26657;BME280;14279;50.010;8.260;2023-03-14T02:46:16;98369.03;;;11.67;75.85
26657;BME280;14279;50.010;8.260;2023-03-14T02:48:47;98377.44;;;11.71;75.61
26657;BME280;14279;50.010;8.260;2023-03-14T02:51:14;98371.31;;;11.82;75.20
26657;BME280;14279;50.010;8.260;2023-03-14T02:53:40;98364.47;;;11.81;75.44
26657;BME280;14279;50.010;8.260;2023-03-14T02:56:07;98367.22;;;11.79;75.78
26657;BME280;14279;50.010;8.260;2023-03-14T02:58:33;98358.28;;;11.82;75.50
26657;BME280;14279;50.010;8.260;2023-03-14T03:00:58;98375.44;;;11.84;75.26
26657;BME280;14279;50.010;8.260;2023-03-14T03:03:26;98366.38;;;11.79;75.23
26657;BME280;14279;50.010;8.260;2023-03-14T03:06:03;98367.69;;;11.94;74.98
26657;BME280;14279;50.010;8.260;2023-03-14T03:08:55;98379.16;;;11.82;75.45
26657;BME280;14279;50.010;8.260;2023-03-14T03:11:23;98386.13;;;11.81;75.06
26657;BME280;14279;50.010;8.260;2023-03-14T03:13:52;98392.38;;;11.90;74.83
26657;BME280;14279;50.010;8.260;2023-03-14T03:16:22;98382.44;;;12.05;73.71
26657;BME280;14279;50.010;8.260;2023-03-14T03:22:02;98364.13;;;12.16;73.13
26657;BME280;14279;50.010;8.260;2023-03-14T03:24:29;98365.28;;;12.02;73.47
26657;BME280;14279;50.010;8.260;2023-03-14T03:26:57;98358.47;;;11.90;73.55
26657;BME280;14279;50.010;8.260;2023-03-14T03:29:29;98361.97;;;12.00;73.35
26657;BME280;14279;50.010;8.260;2023-03-14T03:31:56;98367.50;;;12.07;72.83
26657;BME280;14279;50.010;8.260;2023-03-14T03:34:30;98368.47;;;12.06;72.72
26657;BME280;14279;50.010;8.260;2023-03-14T03:39:39;98361.06;;;12.11;72.26
26657;BME280;14279;50.010;8.260;2023-03-14T03:42:13;98359.69;;;12.07;72.54
26657;BME280;14279;50.010;8.260;2023-03-14T03:44:41;98349.66;;;12.02;72.09
26657;BME280;14279;50.010;8.260;2023-03-14T03:47:07;98346.56;;;12.18;71.68
26657;BME280;14279;50.010;8.260;2023-03-14T03:49:35;98335.88;;;12.22;71.42
26657;BME280;14279;50.010;8.260;2023-03-14T03:52:07;98334.56;;;12.37;71.16
26657;BME280;14279;50.010;8.260;2023-03-14T03:54:37;98322.06;;;12.00;71.83
26657;BME280;14279;50.010;8.260;2023-03-14T03:57:08;98323.75;;;12.11;71.87
26657;BME280;14279;50.010;8.260;2023-03-14T03:59:38;98318.44;;;12.22;71.11
26657;BME280;14279;50.010;8.260;2023-03-14T04:02:13;98318.00;;;12.17;71.72
26657;BME280;14279;50.010;8.260;2023-03-14T04:04:45;98324.19;;;11.95;72.39
26657;BME280;14279;50.010;8.260;2023-03-14T04:07:13;98316.78;;;12.21;71.94
26657;BME280;14279;50.010;8.260;2023-03-14T04:09:42;98325.00;;;11.95;72.67
26657;BME280;14279;50.010;8.260;2023-03-14T04:12:10;98319.22;;;11.92;72.49
26657;BME280;14279;50.010;8.260;2023-03-14T04:14:36;98317.38;;;11.82;73.15
26657;BME280;14279;50.010;8.260;2023-03-14T04:17:02;98327.19;;;11.90;73.40
26657;BME280;14279;50.010;8.260;2023-03-14T04:19:30;98317.59;;;11.69;73.53
26657;BME280;14279;50.010;8.260;2023-03-14T04:22:14;98323.06;;;11.87;73.35
26657;BME280;14279;50.010;8.260;2023-03-14T04:24:40;98321.09;;;11.80;73.75
26657;BME280;14279;50.010;8.260;2023-03-14T04:27:06;98319.59;;;11.77;73.95
26657;BME280;14279;50.010;8.260;2023-03-14T04:29:31;98317.94;;;11.76;74.37
26657;BME280;14279;50.010;8.260;2023-03-14T04:32:00;98306.66;;;11.76;74.38
26657;BME280;14279;50.010;8.260;2023-03-14T04:34:26;98308.22;;;11.57;74.86
26657;BME280;14279;50.010;8.260;2023-03-14T04:36:54;98301.28;;;11.46;75.55
26657;BME280;14279;50.010;8.260;2023-03-14T04:39:19;98296.28;;;11.54;75.17
26657;BME280;14279;50.010;8.260;2023-03-14T04:41:45;98292.25;;;11.50;75.00
26657;BME280;14279;50.010;8.260;2023-03-14T04:44:11;98289.41;;;11.53;75.24
26657;BME280;14279;50.010;8.260;2023-03-14T04:46:37;98283.09;;;11.56;75.20
26657;BME280;14279;50.010;8.260;2023-03-14T04:49:05;98288.81;;;11.50;75.08
26657;BME280;14279;50.010;8.260;2023-03-14T04:51:47;98280.50;;;11.56;74.53
26657;BME280;14279;50.010;8.260;2023-03-14T04:54:18;98286.47;;;11.47;74.81
26657;BME280;14279;50.010;8.260;2023-03-14T04:56:46;98288.19;;;11.36;74.94
26657;BME280;14279;50.010;8.260;2023-03-14T04:59:22;98293.25;;;11.38;75.09
26657;BME280;14279;50.010;8.260;2023-03-14T05:02:02;98283.94;;;11.35;74.93
26657;BME280;14279;50.010;8.260;2023-03-14T05:04:31;98278.78;;;11.45;74.76
26657;BME280;14279;50.010;8.260;2023-03-14T05:07:00;98263.34;;;11.32;75.41
26657;BME280;14279;50.010;8.260;2023-03-14T05:09:28;98263.16;;;11.24;75.31
26657;BME280;14279;50.010;8.260;2023-03-14T05:11:54;98260.03;;;11.30;75.21
26657;BME280;14279;50.010;8.260;2023-03-14T05:14:26;98268.13;;;11.48;74.67
26657;BME280;14279;50.010;8.260;2023-03-14T05:17:07;98263.59;;;11.29;75.28
26657;BME280;14279;50.010;8.260;2023-03-14T05:19:52;98271.09;;;11.22;75.51
26657;BME280;14279;50.010;8.260;2023-03-14T05:22:18;98265.72;;;11.35;74.73
26657;BME280;14279;50.010;8.260;2023-03-14T05:24:48;98264.63;;;11.38;74.78
26657;BME280;14279;50.010;8.260;2023-03-14T05:27:13;98277.75;;;11.57;73.92
26657;BME280;14279;50.010;8.260;2023-03-14T05:29:41;98277.53;;;11.39;74.10
26657;BME280;14279;50.010;8.260;2023-03-14T05:32:09;98281.59;;;11.32;74.70
26657;BME280;14279;50.010;8.260;2023-03-14T05:34:40;98284.09;;;11.43;74.34
26657;BME280;14279;50.010;8.260;2023-03-14T05:37:16;98276.94;;;11.36;74.60
26657;BME280;14279;50.010;8.260;2023-03-14T05:39:52;98284.94;;;11.23;75.29
26657;BME280;14279;50.010;8.260;2023-03-14T05:42:23;98281.19;;;11.37;74.56
26657;BME280;14279;50.010;8.260;2023-03-14T05:44:51;98277.00;;;11.46;74.26
26657;BME280;14279;50.010;8.260;2023-03-14T05:47:19;98270.13;;;11.45;74.15
26657;BME280;14279;50.010;8.260;2023-03-14T05:49:47;98269.47;;;11.42;74.23
26657;BME280;14279;50.010;8.260;2023-03-14T05:52:14;98275.34;;;11.45;73.92
26657;BME280;14279;50.010;8.260;2023-03-14T05:54:42;98276.69;;;11.39;73.50
26657;BME280;14279;50.010;8.260;2023-03-14T05:57:08;98273.69;;;11.43;73.28
26657;BME280;14279;50.010;8.260;2023-03-14T05:59:37;98268.63;;;11.42;73.91
26657;BME280;14279;50.010;8.260;2023-03-14T06:02:03;98269.19;;;11.24;74.00
26657;BME280;14279;50.010;8.260;2023-03-14T06:04:28;98265.19;;;11.41;73.77
26657;BME280;14279;50.010;8.260;2023-03-14T06:06:53;98264.56;;;11.49;73.39
26657;BME280;14279;50.010;8.260;2023-03-14T06:09:19;98258.16;;;11.32;74.00
26657;BME280;14279;50.010;8.260;2023-03-14T06:11:47;98252.22;;;11.30;73.88
26657;BME280;14279;50.010;8.260;2023-03-14T06:14:14;98254.25;;;11.48;73.27
26657;BME280;14279;50.010;8.260;2023-03-14T06:16:39;98242.16;;;11.47;73.78
26657;BME280;14279;50.010;8.260;2023-03-14T06:19:05;98244.78;;;11.47;73.67
26657;BME280;14279;50.010;8.260;2023-03-14T06:21:30;98239.25;;;11.40;73.95
26657;BME280;14279;50.010;8.260;2023-03-14T06:23:55;98239.16;;;11.41;73.71
26657;BME280;14279;50.010;8.260;2023-03-14T06:26:20;98235.59;;;11.42;73.89
26657;BME280;14279;50.010;8.260;2023-03-14T06:28:48;98234.19;;;11.38;73.61
26657;BME280;14279;50.010;8.260;2023-03-14T06:31:13;98232.50;;;11.27;74.47
26657;BME280;14279;50.010;8.260;2023-03-14T06:33:38;98228.84;;;11.40;73.84
26657;BME280;14279;50.010;8.260;2023-03-14T06:36:04;98221.88;;;11.40;74.19
26657;BME280;14279;50.010;8.260;2023-03-14T06:38:29;98215.50;;;11.33;74.04
26657;BME280;14279;50.010;8.260;2023-03-14T06:40:54;98227.59;;;11.34;74.29
26657;BME280;14279;50.010;8.260;2023-03-14T06:43:20;98213.41;;;11.48;73.58
26657;BME280;14279;50.010;8.260;2023-03-14T06:45:45;98218.94;;;11.34;73.51
26657;BME280;14279;50.010;8.260;2023-03-14T06:48:10;98217.31;;;11.64;72.71
26657;BME280;14279;50.010;8.260;2023-03-14T06:50:35;98223.16;;;11.56;72.79
26657;BME280;14279;50.010;8.260;2023-03-14T06:53:01;98220.31;;;11.59;72.59
26657;BME280;14279;50.010;8.260;2023-03-14T06:55:26;98225.41;;;11.70;72.32
26657;BME280;14279;50.010;8.260;2023-03-14T06:57:51;98229.03;;;11.48;72.67
26657;BME280;14279;50.010;8.260;2023-03-14T07:00:17;98222.22;;;11.88;71.91
26657;BME280;14279;50.010;8.260;2023-03-14T07:02:42;98224.28;;;11.53;72.61
26657;BME280;14279;50.010;8.260;2023-03-14T07:05:08;98212.59;;;11.57;72.45
26657;BME280;14279;50.010;8.260;2023-03-14T07:07:44;98224.34;;;11.73;71.75
26657;BME280;14279;50.010;8.260;2023-03-14T07:10:10;98214.66;;;11.54;72.98
26657;BME280;14279;50.010;8.260;2023-03-14T07:12:36;98215.66;;;11.63;72.47
26657;BME280;14279;50.010;8.260;2023-03-14T07:15:01;98225.25;;;11.62;73.11
26657;BME280;14279;50.010;8.260;2023-03-14T07:17:26;98229.38;;;11.65;72.57
26657;BME280;14279;50.010;8.260;2023-03-14T07:19:52;98226.59;;;11.56;73.13
26657;BME280;14279;50.010;8.260;2023-03-14T07:22:30;98233.72;;;11.85;72.65
26657;BME280;14279;50.010;8.260;2023-03-14T07:24:56;98230.78;;;11.69;72.87
26657;BME280;14279;50.010;8.260;2023-03-14T07:27:21;98227.72;;;11.64;73.88
26657;BME280;14279;50.010;8.260;2023-03-14T07:29:46;98230.97;;;11.77;73.51
26657;BME280;14279;50.010;8.260;2023-03-14T07:32:12;98242.63;;;11.52;74.53
26657;BME280;14279;50.010;8.260;2023-03-14T07:34:40;98242.97;;;11.68;74.10
26657;BME280;14279;50.010;8.260;2023-03-14T07:37:06;98245.09;;;11.84;73.98
26657;BME280;14279;50.010;8.260;2023-03-14T07:39:31;98256.78;;;11.59;74.31
26657;BME280;14279;50.010;8.260;2023-03-14T07:42:08;98252.19;;;11.41;75.56
26657;BME280;14279;50.010;8.260;2023-03-14T07:44:35;98249.28;;;11.66;75.08
26657;BME280;14279;50.010;8.260;2023-03-14T07:47:16;98244.31;;;11.63;75.20
26657;BME280;14279;50.010;8.260;2023-03-14T07:56:53;98254.78;;;11.72;75.14
26657;BME280;14279;50.010;8.260;2023-03-14T07:59:41;98258.19;;;11.63;75.21
26657;BME280;14279;50.010;8.260;2023-03-14T08:02:19;98254.19;;;11.59;75.81
26657;BME280;14279;50.010;8.260;2023-03-14T08:04:47;98257.84;;;11.56;75.88
26657;BME280;14279;50.010;8.260;2023-03-14T08:07:19;98264.34;;;11.62;75.76
26657;BME280;14279;50.010;8.260;2023-03-14T08:09:44;98263.19;;;11.76;75.48
26657;BME280;14279;50.010;8.260;2023-03-14T08:12:09;98266.66;;;11.86;74.93
26657;BME280;14279;50.010;8.260;2023-03-14T08:14:35;98263.03;;;11.99;74.68
26657;BME280;14279;50.010;8.260;2023-03-14T08:17:04;98259.66;;;11.87;75.04
26657;BME280;14279;50.010;8.260;2023-03-14T08:19:32;98262.03;;;11.90;74.89
26657;BME280;14279;50.010;8.260;2023-03-14T08:22:00;98259.34;;;11.80;75.15
26657;BME280;14279;50.010;8.260;2023-03-14T08:39:40;98250.38;;;12.35;72.60
26657;BME280;14279;50.010;8.260;2023-03-14T08:50:48;98268.97;;;12.61;73.04
26657;BME280;14279;50.010;8.260;2023-03-14T08:53:13;98257.69;;;12.61;73.23
26657;BME280;14279;50.010;8.260;2023-03-14T08:55:39;98255.31;;;12.38;73.46
26657;BME280;14279;50.010;8.260;2023-03-14T08:58:04;98253.84;;;12.55;73.13
26657;BME280;14279;50.010;8.260;2023-03-14T09:00:29;98254.19;;;12.31;73.84
26657;BME280;14279;50.010;8.260;2023-03-14T09:02:54;98256.06;;;12.09;74.62
26657;BME280;14279;50.010;8.260;2023-03-14T09:05:22;98260.19;;;12.02;75.03
26657;BME280;14279;50.010;8.260;2023-03-14T09:07:47;98241.03;;;12.32;74.09
26657;BME280;14279;50.010;8.260;2023-03-14T09:10:20;98246.63;;;12.18;74.40
26657;BME280;14279;50.010;8.260;2023-03-14T09:12:45;98250.75;;;12.21;74.29
26657;BME280;14279;50.010;8.260;2023-03-14T09:15:11;98241.47;;;12.38;73.28
26657;BME280;14279;50.010;8.260;2023-03-14T09:17:36;98257.91;;;12.28;73.92
26657;BME280;14279;50.010;8.260;2023-03-14T09:20:03;98256.94;;;12.29;73.49
26657;BME280;14279;50.010;8.260;2023-03-14T09:22:31;98253.47;;;12.19;74.05
26657;BME280;14279;50.010;8.260;2023-03-14T09:24:57;98267.38;;;11.98;75.29
26657;BME280;14279;50.010;8.260;2023-03-14T09:27:23;98269.75;;;12.01;75.53
26657;BME280;14279;50.010;8.260;2023-03-14T09:29:48;98259.53;;;12.20;74.64
26657;BME280;14279;50.010;8.260;2023-03-14T09:32:19;98274.09;;;12.22;74.74
26657;BME280;14279;50.010;8.260;2023-03-14T09:35:00;98271.47;;;12.22;74.46
26657;BME280;14279;50.010;8.260;2023-03-14T09:37:25;98267.59;;;12.67;72.99
26657;BME280;14279;50.010;8.260;2023-03-14T09:39:50;98273.59;;;12.48;73.26
26657;BME280;14279;50.010;8.260;2023-03-14T09:42:19;98276.22;;;12.48;73.35
26657;BME280;14279;50.010;8.260;2023-03-14T09:44:57;98279.53;;;12.60;72.78
26657;BME280;14279;50.010;8.260;2023-03-14T09:47:26;98278.16;;;12.66;72.58
26657;BME280;14279;50.010;8.260;2023-03-14T09:49:51;98266.63;;;12.78;71.61
26657;BME280;14279;50.010;8.260;2023-03-14T09:52:25;98270.75;;;12.81;72.05
26657;BME280;14279;50.010;8.260;2023-03-14T09:54:58;98275.97;;;12.81;71.26
26657;BME280;14279;50.010;8.260;2023-03-14T09:57:25;98280.09;;;12.73;71.92
26657;BME280;14279;50.010;8.260;2023-03-14T09:59:53;98274.19;;;12.61;72.38
26657;BME280;14279;50.010;8.260;2023-03-14T10:02:22;98267.06;;;12.63;71.99
26657;BME280;14279;50.010;8.260;2023-03-14T10:04:52;98261.28;;;12.80;71.66
26657;BME280;14279;50.010;8.260;2023-03-14T10:07:21;98266.75;;;12.76;71.63
26657;BME280;14279;50.010;8.260;2023-03-14T10:09:50;98265.53;;;12.71;72.03
26657;BME280;14279;50.010;8.260;2023-03-14T10:12:17;98260.19;;;12.92;71.37
26657;BME280;14279;50.010;8.260;2023-03-14T10:15:15;98259.06;;;12.85;71.69
26657;BME280;14279;50.010;8.260;2023-03-14T10:17:51;98260.44;;;12.50;73.38
26657;BME280;14279;50.010;8.260;2023-03-14T10:20:40;98255.22;;;12.59;73.56
26657;BME280;14279;50.010;8.260;2023-03-14T10:23:31;98260.03;;;12.84;72.87
26657;BME280;14279;50.010;8.260;2023-03-14T10:26:06;98256.59;;;12.63;73.69
26657;BME280;14279;50.010;8.260;2023-03-14T10:28:38;98255.78;;;12.73;73.65
26657;BME280;14279;50.010;8.260;2023-03-14T10:31:04;98251.66;;;12.80;73.26
26657;BME280;14279;50.010;8.260;2023-03-14T10:33:32;98257.41;;;13.03;72.46
26657;BME280;14279;50.010;8.260;2023-03-14T10:41:50;98255.09;;;12.81;72.44
26657;BME280;14279;50.010;8.260;2023-03-14T10:46:59;98243.28;;;12.86;72.69
26657;BME280;14279;50.010;8.260;2023-03-14T10:53:20;98263.88;;;12.70;73.41
26657;BME280;14279;50.010;8.260;2023-03-14T10:58:26;98254.94;;;13.21;71.87
26657;BME280;14279;50.010;8.260;2023-03-14T11:01:16;98255.66;;;13.04;72.54
26657;BME280;14279;50.010;8.260;2023-03-14T11:03:56;98268.44;;;12.87;73.78
26657;BME280;14279;50.010;8.260;2023-03-14T11:06:28;98265.94;;;12.86;73.94
26657;BME280;14279;50.010;8.260;2023-03-14T11:09:02;98263.59;;;12.83;73.90
26657;BME280;14279;50.010;8.260;2023-03-14T11:11:32;98266.38;;;12.91;73.91
26657;BME280;14279;50.010;8.260;2023-03-14T11:14:30;98266.38;;;13.01;73.31
26657;BME280;14279;50.010;8.260;2023-03-14T11:17:02;98266.91;;;13.04;73.18
26657;BME280;14279;50.010;8.260;2023-03-14T11:20:09;98265.41;;;13.02;72.89
26657;BME280;14279;50.010;8.260;2023-03-14T11:22:59;98261.97;;;12.91;73.13
26657;BME280;14279;50.010;8.260;2023-03-14T11:25:54;98270.75;;;13.00;72.94
26657;BME280;14279;50.010;8.260;2023-03-14T11:28:28;98257.56;;;13.02;73.61
26657;BME280;14279;50.010;8.260;2023-03-14T11:31:35;98278.44;;;13.41;72.45
26657;BME280;14279;50.010;8.260;2023-03-14T11:34:17;98284.31;;;13.63;71.49
26657;BME280;14279;50.010;8.260;2023-03-14T11:36:59;98286.69;;;13.46;72.23
26657;BME280;14279;50.010;8.260;2023-03-14T11:39:39;98302.38;;;13.07;75.01
26657;BME280;14279;50.010;8.260;2023-03-14T11:42:11;98269.41;;;12.86;77.78
26657;BME280;14279;50.010;8.260;2023-03-14T11:44:39;98301.72;;;12.35;79.75
26657;BME280;14279;50.010;8.260;2023-03-14T11:47:12;98325.75;;;12.38;77.35
26657;BME280;14279;50.010;8.260;2023-03-14T11:52:32;98377.94;;;12.07;71.40
26657;BME280;14279;50.010;8.260;2023-03-14T11:57:49;98463.38;;;11.61;70.66
26657;BME280;14279;50.010;8.260;2023-03-14T12:00:20;98434.09;;;11.25;71.88
26657;BME280;14279;50.010;8.260;2023-03-14T12:05:56;98461.63;;;10.95;67.58
26657;BME280;14279;50.010;8.260;2023-03-14T12:08:32;98560.28;;;11.21;65.78
26657;BME280;14279;50.010;8.260;2023-03-14T12:11:45;98536.84;;;11.21;63.35
26657;BME280;14279;50.010;8.260;2023-03-14T12:14:22;98510.53;;;11.47;63.04
26657;BME280;14279;50.010;8.260;2023-03-14T12:16:49;98529.66;;;11.24;62.63
26657;BME280;14279;50.010;8.260;2023-03-14T12:21:49;98586.94;;;11.47;61.09
26657;BME280;14279;50.010;8.260;2023-03-14T12:24:22;98587.44;;;11.30;63.05
26657;BME280;14279;50.010;8.260;2023-03-14T12:27:09;98549.41;;;11.82;62.39
26657;BME280;14279;50.010;8.260;2023-03-14T12:29:57;98572.91;;;11.71;61.89
26657;BME280;14279;50.010;8.260;2023-03-14T12:32:25;98548.59;;;11.26;61.69
26657;BME280;14279;50.010;8.260;2023-03-14T12:34:51;98569.28;;;11.51;61.78
26657;BME280;14279;50.010;8.260;2023-03-14T12:37:25;98591.50;;;11.78;61.15
26657;BME280;14279;50.010;8.260;2023-03-14T12:40:02;98579.47;;;11.54;59.52
26657;BME280;14279;50.010;8.260;2023-03-14T12:45:40;98587.69;;;11.82;58.17
26657;BME280;14279;50.010;8.260;2023-03-14T12:48:19;98605.91;;;12.05;57.07
26657;BME280;14279;50.010;8.260;2023-03-14T12:51:04;98638.88;;;11.83;56.88
26657;BME280;14279;50.010;8.260;2023-03-14T13:01:58;98663.06;;;11.17;60.64
26657;BME280;14279;50.010;8.260;2023-03-14T13:04:46;98677.66;;;11.42;59.84
26657;BME280;14279;50.010;8.260;2023-03-14T13:07:28;98666.63;;;11.27;60.00
26657;BME280;14279;50.010;8.260;2023-03-14T13:10:00;98708.03;;;10.72;63.83
26657;BME280;14279;50.010;8.260;2023-03-14T13:12:29;98711.09;;;10.41;69.58
26657;BME280;14279;50.010;8.260;2023-03-14T13:14:58;98703.88;;;9.57;72.87
26657;BME280;14279;50.010;8.260;2023-03-14T13:17:33;98730.38;;;9.24;75.49
26657;BME280;14279;50.010;8.260;2023-03-14T13:20:02;98757.03;;;9.13;75.00
26657;BME280;14279;50.010;8.260;2023-03-14T13:22:32;98776.09;;;9.26;74.17
26657;BME280;14279;50.010;8.260;2023-03-14T13:25:07;98765.47;;;9.29;73.41
26657;BME280;14279;50.010;8.260;2023-03-14T13:27:34;98777.03;;;9.51;73.08
26657;BME280;14279;50.010;8.260;2023-03-14T13:30:27;98789.13;;;9.12;74.35
26657;BME280;14279;50.010;8.260;2023-03-14T13:32:52;98802.16;;;9.38;76.00
26657;BME280;14279;50.010;8.260;2023-03-14T13:35:20;98785.81;;;9.23;75.09
26657;BME280;14279;50.010;8.260;2023-03-14T13:37:46;98831.09;;;9.59;74.37
26657;BME280;14279;50.010;8.260;2023-03-14T13:40:31;98798.53;;;9.79;72.43
26657;BME280;14279;50.010;8.260;2023-03-14T13:43:20;98819.44;;;10.03;72.70
26657;BME280;14279;50.010;8.260;2023-03-14T13:45:55;98813.38;;;10.16;71.59
26657;BME280;14279;50.010;8.260;2023-03-14T13:48:26;98834.31;;;10.01;68.00
26657;BME280;14279;50.010;8.260;2023-03-14T13:50:55;98821.19;;;10.03;65.50
26657;BME280;14279;50.010;8.260;2023-03-14T13:53:22;98834.09;;;10.30;64.16
26657;BME280;14279;50.010;8.260;2023-03-14T13:55:47;98864.97;;;10.09;63.79
26657;BME280;14279;50.010;8.260;2023-03-14T13:58:22;98833.66;;;10.23;64.18
26657;BME280;14279;50.010;8.260;2023-03-14T14:01:00;98865.88;;;10.60;63.88
26657;BME280;14279;50.010;8.260;2023-03-14T14:03:27;98917.91;;;10.34;63.19
26657;BME280;14279;50.010;8.260;2023-03-14T14:05:55;98871.84;;;10.49;61.61
26657;BME280;14279;50.010;8.260;2023-03-14T14:08:20;98877.13;;;10.47;59.83
26657;BME280;14279;50.010;8.260;2023-03-14T14:10:47;98883.75;;;10.77;58.84
26657;BME280;14279;50.010;8.260;2023-03-14T14:13:17;98880.97;;;10.55;58.84
26657;BME280;14279;50.010;8.260;2023-03-14T14:15:48;98913.06;;;10.42;57.74
26657;BME280;14279;50.010;8.260;2023-03-14T14:18:17;98902.88;;;10.39;57.23
26657;BME280;14279;50.010;8.260;2023-03-14T14:20:45;98942.50;;;10.56;56.91
26657;BME280;14279;50.010;8.260;2023-03-14T14:23:13;98880.38;;;10.38;56.59
26657;BME280;14279;50.010;8.260;2023-03-14T14:25:39;98960.72;;;10.43;57.63
26657;BME280;14279;50.010;8.260;2023-03-14T14:28:23;98962.50;;;10.42;57.91
26657;BME280;14279;50.010;8.260;2023-03-14T14:33:53;98969.84;;;10.22;57.28
26657;BME280;14279;50.010;8.260;2023-03-14T14:38:52;99025.63;;;9.63;58.50
26657;BME280;14279;50.010;8.260;2023-03-14T14:41:18;99031.22;;;9.57;59.02
26657;BME280;14279;50.010;8.260;2023-03-14T14:43:43;99115.28;;;9.56;58.47
26657;BME280;14279;50.010;8.260;2023-03-14T14:46:09;99038.00;;;9.60;57.98
26657;BME280;14279;50.010;8.260;2023-03-14T14:48:38;99027.38;;;9.63;57.63
26657;BME280;14279;50.010;8.260;2023-03-14T14:51:06;99046.31;;;9.65;57.50
26657;BME280;14279;50.010;8.260;2023-03-14T14:53:38;99065.66;;;9.46;56.21
26657;BME280;14279;50.010;8.260;2023-03-14T14:56:07;99169.56;;;9.46;56.87